sensor_id;sensor_type;location;lat;lon;timestamp;pressure;altitude;pressure_sealevel;temperature;humidity
59588;BME280;45412;54.472;18.464;2023-07-13T00:00:59;99383.44;;;14.70;96.57
59588;BME280;45412;54.472;18.464;2023-07-13T00:03:48;99384.08;;;14.67;96.85
59588;BME280;45412;54.472;18.464;2023-07-13T00:06:36;99387.92;;;14.64;97.15
59588;BME280;45412;54.472;18.464;2023-07-13T00:09:23;99390.45;;;14.60;97.22
59588;BME280;45412;54.472;18.464;2023-07-13T00:12:36;99393.21;;;14.57;97.68
59588;BME280;45412;54.472;18.464;2023-07-13T00:15:26;99396.53;;;14.57;97.85
59588;BME280;45412;54.472;18.464;2023-07-13T00:18:14;99399.42;;;14.56;98.32
59588;BME280;45412;54.472;18.464;2023-07-13T00:21:02;99400.03;;;14.55;98.72
59588;BME280;45412;54.472;18.464;2023-07-13T00:23:53;99402.64;;;14.56;99.55
59588;BME280;45412;54.472;18.464;2023-07-13T00:26:42;99396.65;;;14.57;99.62
59588;BME280;45412;54.472;18.464;2023-07-13T00:29:33;99390.06;;;14.57;99.74
59588;BME280;45412;54.472;18.464;2023-07-13T00:32:21;99380.23;;;14.57;99.84
59588;BME280;45412;54.472;18.464;2023-07-13T00:35:09;99372.27;;;14.57;99.14
59588;BME280;45412;54.472;18.464;2023-07-13T00:37:57;99361.91;;;14.55;99.06
59588;BME280;45412;54.472;18.464;2023-07-13T00:40:45;99360.80;;;14.50;99.11
59588;BME280;45412;54.472;18.464;2023-07-13T00:43:33;99365.08;;;14.47;99.06
59588;BME280;45412;54.472;18.464;2023-07-13T00:46:29;99376.70;;;14.43;99.36
59588;BME280;45412;54.472;18.464;2023-07-13T00:49:21;99383.43;;;14.40;99.50
59588;BME280;45412;54.472;18.464;2023-07-13T00:52:10;99378.52;;;14.39;99.72
59588;BME280;45412;54.472;18.464;2023-07-13T00:54:58;99380.13;;;14.38;99.52
59588;BME280;45412;54.472;18.464;2023-07-13T00:57:47;99379.98;;;14.37;99.96
59588;BME280;45412;54.472;18.464;2023-07-13T01:00:36;99383.90;;;14.37;100.00
59588;BME280;45412;54.472;18.464;2023-07-13T01:03:27;99393.77;;;14.37;100.00
59588;BME280;45412;54.472;18.464;2023-07-13T01:06:15;99402.52;;;14.37;100.00
59588;BME280;45412;54.472;18.464;2023-07-13T01:09:07;99404.23;;;14.36;100.00
59588;BME280;45412;54.472;18.464;2023-07-13T01:11:55;99406.65;;;14.37;100.00
59588;BME280;45412;54.472;18.464;2023-07-13T01:14:44;99404.51;;;14.37;100.00
59588;BME280;45412;54.472;18.464;2023-07-13T01:17:33;99407.75;;;14.36;100.00
59588;BME280;45412;54.472;18.464;2023-07-13T01:20:21;99409.04;;;14.36;100.00
59588;BME280;45412;54.472;18.464;2023-07-13T01:23:29;99406.48;;;14.36;100.00
59588;BME280;45412;54.472;18.464;2023-07-13T01:26:24;99408.68;;;14.37;100.00
59588;BME280;45412;54.472;18.464;2023-07-13T01:29:12;99408.27;;;14.40;100.00
59588;BME280;45412;54.472;18.464;2023-07-13T01:32:00;99403.58;;;14.40;100.00
59588;BME280;45412;54.472;18.464;2023-07-13T01:34:52;99404.80;;;14.42;100.00
59588;BME280;45412;54.472;18.464;2023-07-13T01:37:44;99407.98;;;14.44;100.00
59588;BME280;45412;54.472;18.464;2023-07-13T01:40:32;99407.21;;;14.45;100.00
59588;BME280;45412;54.472;18.464;2023-07-13T01:43:20;99413.71;;;14.46;100.00
59588;BME280;45412;54.472;18.464;2023-07-13T01:46:09;99416.77;;;14.47;100.00
59588;BME280;45412;54.472;18.464;2023-07-13T01:49:10;99414.30;;;14.51;100.00
59588;BME280;45412;54.472;18.464;2023-07-13T01:51:59;99421.41;;;14.54;100.00
59588;BME280;45412;54.472;18.464;2023-07-13T01:54:47;99420.12;;;14.56;100.00
59588;BME280;45412;54.472;18.464;2023-07-13T01:57:37;99425.78;;;14.62;100.00
59588;BME280;45412;54.472;18.464;2023-07-13T02:00:25;99428.77;;;14.68;100.00
59588;BME280;45412;54.472;18.464;2023-07-13T02:03:14;99433.06;;;14.71;100.00
59588;BME280;45412;54.472;18.464;2023-07-13T02:06:05;99434.71;;;14.76;100.00
59588;BME280;45412;54.472;18.464;2023-07-13T02:08:54;99433.23;;;14.80;100.00
59588;BME280;45412;54.472;18.464;2023-07-13T02:11:43;99434.68;;;14.83;100.00
59588;BME280;45412;54.472;18.464;2023-07-13T02:14:31;99437.33;;;14.85;100.00
59588;BME280;45412;54.472;18.464;2023-07-13T02:17:18;99441.66;;;14.86;100.00
59588;BME280;45412;54.472;18.464;2023-07-13T02:20:07;99443.83;;;14.88;100.00
59588;BME280;45412;54.472;18.464;2023-07-13T02:22:55;99449.80;;;14.87;100.00
59588;BME280;45412;54.472;18.464;2023-07-13T02:25:45;99451.27;;;14.88;100.00
59588;BME280;45412;54.472;18.464;2023-07-13T02:28:36;99452.15;;;14.88;100.00
59588;BME280;45412;54.472;18.464;2023-07-13T02:31:23;99454.77;;;14.87;100.00
59588;BME280;45412;54.472;18.464;2023-07-13T02:34:14;99460.01;;;14.85;100.00
59588;BME280;45412;54.472;18.464;2023-07-13T02:37:02;99454.73;;;14.81;100.00
59588;BME280;45412;54.472;18.464;2023-07-13T02:39:50;99453.27;;;14.81;100.00
59588;BME280;45412;54.472;18.464;2023-07-13T02:42:38;99450.07;;;14.81;100.00
59588;BME280;45412;54.472;18.464;2023-07-13T02:45:26;99455.09;;;14.81;100.00
59588;BME280;45412;54.472;18.464;2023-07-13T02:48:14;99457.21;;;14.81;100.00
59588;BME280;45412;54.472;18.464;2023-07-13T02:51:02;99457.68;;;14.81;100.00
59588;BME280;45412;54.472;18.464;2023-07-13T02:53:54;99455.43;;;14.81;100.00
59588;BME280;45412;54.472;18.464;2023-07-13T02:56:45;99453.33;;;14.82;100.00
59588;BME280;45412;54.472;18.464;2023-07-13T02:59:33;99458.29;;;14.85;100.00
59588;BME280;45412;54.472;18.464;2023-07-13T03:02:20;99456.02;;;14.84;100.00
59588;BME280;45412;54.472;18.464;2023-07-13T03:05:09;99448.94;;;14.83;100.00
59588;BME280;45412;54.472;18.464;2023-07-13T03:08:02;99446.17;;;14.86;100.00
59588;BME280;45412;54.472;18.464;2023-07-13T03:11:04;99450.61;;;14.88;100.00
59588;BME280;45412;54.472;18.464;2023-07-13T03:13:55;99451.50;;;14.88;100.00
59588;BME280;45412;54.472;18.464;2023-07-13T03:16:43;99455.33;;;14.90;100.00
59588;BME280;45412;54.472;18.464;2023-07-13T03:19:32;99453.77;;;14.93;100.00
59588;BME280;45412;54.472;18.464;2023-07-13T03:22:25;99451.37;;;14.97;100.00
59588;BME280;45412;54.472;18.464;2023-07-13T03:25:14;99454.16;;;15.02;100.00
59588;BME280;45412;54.472;18.464;2023-07-13T03:28:02;99457.58;;;15.06;100.00
59588;BME280;45412;54.472;18.464;2023-07-13T03:31:13;99455.02;;;15.10;100.00
59588;BME280;45412;54.472;18.464;2023-07-13T03:34:02;99453.02;;;15.16;100.00
59588;BME280;45412;54.472;18.464;2023-07-13T03:36:54;99449.83;;;15.20;100.00
59588;BME280;45412;54.472;18.464;2023-07-13T03:39:43;99445.73;;;15.27;100.00
59588;BME280;45412;54.472;18.464;2023-07-13T03:42:31;99442.14;;;15.32;100.00
59588;BME280;45412;54.472;18.464;2023-07-13T03:45:19;99443.65;;;15.38;100.00
59588;BME280;45412;54.472;18.464;2023-07-13T03:48:08;99444.99;;;15.42;100.00
59588;BME280;45412;54.472;18.464;2023-07-13T03:50:56;99446.58;;;15.46;100.00
59588;BME280;45412;54.472;18.464;2023-07-13T03:53:46;99449.36;;;15.50;100.00
59588;BME280;45412;54.472;18.464;2023-07-13T03:56:35;99451.79;;;15.56;100.00
59588;BME280;45412;54.472;18.464;2023-07-13T03:59:24;99451.29;;;15.62;100.00
59588;BME280;45412;54.472;18.464;2023-07-13T04:02:17;99450.25;;;15.70;100.00
59588;BME280;45412;54.472;18.464;2023-07-13T04:05:06;99451.95;;;15.81;100.00
59588;BME280;45412;54.472;18.464;2023-07-13T04:07:55;99458.80;;;15.90;100.00
59588;BME280;45412;54.472;18.464;2023-07-13T04:10:43;99457.74;;;16.00;100.00
59588;BME280;45412;54.472;18.464;2023-07-13T04:13:33;99459.20;;;16.08;100.00
59588;BME280;45412;54.472;18.464;2023-07-13T04:16:21;99463.06;;;16.17;100.00
59588;BME280;45412;54.472;18.464;2023-07-13T04:19:10;99469.55;;;16.26;100.00
59588;BME280;45412;54.472;18.464;2023-07-13T04:21:58;99476.48;;;16.36;100.00
59588;BME280;45412;54.472;18.464;2023-07-13T04:24:45;99471.29;;;16.44;100.00
59588;BME280;45412;54.472;18.464;2023-07-13T04:27:33;99473.98;;;16.54;100.00
59588;BME280;45412;54.472;18.464;2023-07-13T04:30:24;99477.48;;;16.67;100.00
59588;BME280;45412;54.472;18.464;2023-07-13T04:33:12;99486.02;;;16.79;100.00
59588;BME280;45412;54.472;18.464;2023-07-13T04:36:00;99488.31;;;16.91;99.73
59588;BME280;45412;54.472;18.464;2023-07-13T04:38:49;99494.46;;;17.05;99.05
59588;BME280;45412;54.472;18.464;2023-07-13T04:41:40;99497.02;;;17.21;98.34
59588;BME280;45412;54.472;18.464;2023-07-13T04:44:28;99499.74;;;17.43;97.16
59588;BME280;45412;54.472;18.464;2023-07-13T04:47:18;99486.41;;;17.70;95.63
59588;BME280;45412;54.472;18.464;2023-07-13T04:50:08;99473.89;;;18.01;93.91
59588;BME280;45412;54.472;18.464;2023-07-13T04:52:58;99470.45;;;18.49;92.27
59588;BME280;45412;54.472;18.464;2023-07-13T04:55:54;99469.13;;;19.06;89.57
59588;BME280;45412;54.472;18.464;2023-07-13T04:58:43;99473.80;;;19.69;85.53
59588;BME280;45412;54.472;18.464;2023-07-13T05:01:32;99467.43;;;20.25;82.79
59588;BME280;45412;54.472;18.464;2023-07-13T05:04:19;99469.42;;;20.84;80.15
59588;BME280;45412;54.472;18.464;2023-07-13T05:07:07;99470.05;;;21.39;76.55
59588;BME280;45412;54.472;18.464;2023-07-13T05:10:02;99468.86;;;21.91;73.02
59588;BME280;45412;54.472;18.464;2023-07-13T05:12:51;99468.96;;;22.43;71.07
59588;BME280;45412;54.472;18.464;2023-07-13T05:15:41;99470.34;;;22.86;67.92
59588;BME280;45412;54.472;18.464;2023-07-13T05:18:30;99473.20;;;23.19;66.54
59588;BME280;45412;54.472;18.464;2023-07-13T05:21:18;99476.41;;;23.57;64.22
59588;BME280;45412;54.472;18.464;2023-07-13T05:24:06;99480.61;;;23.86;62.90
59588;BME280;45412;54.472;18.464;2023-07-13T05:27:11;99488.25;;;24.10;61.18
59588;BME280;45412;54.472;18.464;2023-07-13T05:29:59;99493.57;;;24.35;60.42
59588;BME280;45412;54.472;18.464;2023-07-13T05:32:48;99491.38;;;24.59;59.41
59588;BME280;45412;54.472;18.464;2023-07-13T05:35:36;99495.31;;;24.86;58.18
59588;BME280;45412;54.472;18.464;2023-07-13T05:38:29;99501.42;;;25.25;56.88
59588;BME280;45412;54.472;18.464;2023-07-13T05:41:18;99501.79;;;25.66;55.45
59588;BME280;45412;54.472;18.464;2023-07-13T05:44:08;99510.15;;;26.03;53.98
59588;BME280;45412;54.472;18.464;2023-07-13T05:46:57;99523.11;;;26.24;51.62
59588;BME280;45412;54.472;18.464;2023-07-13T05:49:46;99526.01;;;26.26;51.40
59588;BME280;45412;54.472;18.464;2023-07-13T05:52:33;99531.52;;;26.29;51.95
59588;BME280;45412;54.472;18.464;2023-07-13T05:55:21;99534.91;;;26.52;50.85
59588;BME280;45412;54.472;18.464;2023-07-13T05:58:10;99537.21;;;26.99;49.18
59588;BME280;45412;54.472;18.464;2023-07-13T06:01:05;99536.73;;;27.09;48.88
59588;BME280;45412;54.472;18.464;2023-07-13T06:03:53;99534.23;;;27.61;47.39
59588;BME280;45412;54.472;18.464;2023-07-13T06:06:41;99540.58;;;28.38;46.03
59588;BME280;45412;54.472;18.464;2023-07-13T06:09:29;99539.45;;;29.22;44.15
59588;BME280;45412;54.472;18.464;2023-07-13T06:12:17;99541.17;;;29.82;42.04
59588;BME280;45412;54.472;18.464;2023-07-13T06:15:06;99537.51;;;30.28;40.37
59588;BME280;45412;54.472;18.464;2023-07-13T06:17:54;99544.56;;;30.76;39.14
59588;BME280;45412;54.472;18.464;2023-07-13T06:20:42;99534.23;;;31.26;37.71
59588;BME280;45412;54.472;18.464;2023-07-13T06:23:29;99536.66;;;31.67;36.69
59588;BME280;45412;54.472;18.464;2023-07-13T06:26:20;99539.10;;;31.82;36.05
59588;BME280;45412;54.472;18.464;2023-07-13T06:29:08;99543.60;;;32.07;35.76
59588;BME280;45412;54.472;18.464;2023-07-13T06:31:57;99542.10;;;32.56;35.14
59588;BME280;45412;54.472;18.464;2023-07-13T06:34:45;99541.85;;;32.77;34.20
59588;BME280;45412;54.472;18.464;2023-07-13T06:38:21;99542.40;;;32.94;33.00
59588;BME280;45412;54.472;18.464;2023-07-13T06:41:24;99540.56;;;32.46;33.40
59588;BME280;45412;54.472;18.464;2023-07-13T06:44:19;99542.27;;;32.05;33.78
59588;BME280;45412;54.472;18.464;2023-07-13T06:47:11;99543.45;;;31.83;33.77
59588;BME280;45412;54.472;18.464;2023-07-13T06:50:05;99542.32;;;30.95;35.17
59588;BME280;45412;54.472;18.464;2023-07-13T06:52:59;99544.66;;;30.29;36.13
59588;BME280;45412;54.472;18.464;2023-07-13T06:55:51;99539.58;;;29.62;37.73
59588;BME280;45412;54.472;18.464;2023-07-13T06:58:39;99541.60;;;29.28;38.42
59588;BME280;45412;54.472;18.464;2023-07-13T07:01:29;99546.55;;;29.17;38.23
59588;BME280;45412;54.472;18.464;2023-07-13T07:04:17;99547.08;;;29.71;37.29
59588;BME280;45412;54.472;18.464;2023-07-13T07:07:09;99553.55;;;30.03;36.88
59588;BME280;45412;54.472;18.464;2023-07-13T07:10:16;99554.30;;;29.76;36.91
59588;BME280;45412;54.472;18.464;2023-07-13T07:13:08;99560.02;;;30.57;35.63
59588;BME280;45412;54.472;18.464;2023-07-13T07:16:00;99557.15;;;29.98;36.54
59588;BME280;45412;54.472;18.464;2023-07-13T07:18:56;99555.20;;;29.20;37.50
59588;BME280;45412;54.472;18.464;2023-07-13T07:21:45;99553.02;;;28.60;38.62
59588;BME280;45412;54.472;18.464;2023-07-13T07:24:38;99551.87;;;28.38;39.59
59588;BME280;45412;54.472;18.464;2023-07-13T07:27:27;99548.56;;;28.27;39.62
59588;BME280;45412;54.472;18.464;2023-07-13T07:30:23;99552.09;;;27.75;40.79
59588;BME280;45412;54.472;18.464;2023-07-13T07:33:15;99550.45;;;27.38;42.37
59588;BME280;45412;54.472;18.464;2023-07-13T07:36:04;99545.07;;;28.08;41.61
59588;BME280;45412;54.472;18.464;2023-07-13T07:38:55;99545.36;;;29.02;38.86
59588;BME280;45412;54.472;18.464;2023-07-13T07:41:43;99552.13;;;30.29;36.53
59588;BME280;45412;54.472;18.464;2023-07-13T07:44:44;99550.21;;;30.37;35.01
59588;BME280;45412;54.472;18.464;2023-07-13T07:47:35;99553.04;;;30.92;34.65
59588;BME280;45412;54.472;18.464;2023-07-13T07:50:28;99550.23;;;31.29;33.67
59588;BME280;45412;54.472;18.464;2023-07-13T07:53:16;99552.58;;;31.80;33.65
59588;BME280;45412;54.472;18.464;2023-07-13T07:56:04;99550.83;;;32.95;32.35
59588;BME280;45412;54.472;18.464;2023-07-13T07:59:15;99555.20;;;32.54;31.55
59588;BME280;45412;54.472;18.464;2023-07-13T08:02:08;99560.00;;;31.81;32.91
59588;BME280;45412;54.472;18.464;2023-07-13T08:05:16;99565.69;;;30.83;34.27
59588;BME280;45412;54.472;18.464;2023-07-13T08:08:07;99569.23;;;30.88;34.34
59588;BME280;45412;54.472;18.464;2023-07-13T08:10:55;99568.87;;;30.06;35.53
59588;BME280;45412;54.472;18.464;2023-07-13T08:13:50;99566.24;;;29.91;36.13
59588;BME280;45412;54.472;18.464;2023-07-13T08:16:41;99568.36;;;30.90;34.19
59588;BME280;45412;54.472;18.464;2023-07-13T08:19:30;99571.86;;;30.34;34.87
59588;BME280;45412;54.472;18.464;2023-07-13T08:22:18;99568.48;;;29.43;35.81
59588;BME280;45412;54.472;18.464;2023-07-13T08:25:06;99569.54;;;29.45;36.36
59588;BME280;45412;54.472;18.464;2023-07-13T08:27:55;99571.15;;;30.55;35.17
59588;BME280;45412;54.472;18.464;2023-07-13T08:30:45;99569.11;;;31.64;32.86
59588;BME280;45412;54.472;18.464;2023-07-13T08:33:36;99572.61;;;31.51;31.67
59588;BME280;45412;54.472;18.464;2023-07-13T08:36:26;99578.65;;;30.91;32.30
59588;BME280;45412;54.472;18.464;2023-07-13T08:39:15;99571.63;;;31.67;31.64
59588;BME280;45412;54.472;18.464;2023-07-13T08:42:22;99569.09;;;32.39;30.50
59588;BME280;45412;54.472;18.464;2023-07-13T08:48:14;99563.37;;;33.25;29.19
59588;BME280;45412;54.472;18.464;2023-07-13T08:51:27;99566.73;;;33.99;27.97
59588;BME280;45412;54.472;18.464;2023-07-13T08:54:34;99570.42;;;34.72;26.94
59588;BME280;45412;54.472;18.464;2023-07-13T08:57:32;99572.39;;;35.11;26.36
59588;BME280;45412;54.472;18.464;2023-07-13T09:00:23;99569.94;;;35.69;25.66
59588;BME280;45412;54.472;18.464;2023-07-13T09:03:23;99567.92;;;35.55;25.19
59588;BME280;45412;54.472;18.464;2023-07-13T09:06:14;99570.30;;;35.56;25.37
59588;BME280;45412;54.472;18.464;2023-07-13T09:09:10;99569.80;;;35.24;26.03
59588;BME280;45412;54.472;18.464;2023-07-13T09:15:24;99566.48;;;35.24;25.92
59588;BME280;45412;54.472;18.464;2023-07-13T09:18:36;99561.75;;;35.40;26.25
59588;BME280;45412;54.472;18.464;2023-07-13T09:21:34;99556.95;;;35.73;26.01
59588;BME280;45412;54.472;18.464;2023-07-13T09:24:50;99552.33;;;36.18;25.61
59588;BME280;45412;54.472;18.464;2023-07-13T09:27:44;99551.70;;;36.46;24.40
59588;BME280;45412;54.472;18.464;2023-07-13T09:30:43;99544.27;;;36.22;24.99
59588;BME280;45412;54.472;18.464;2023-07-13T09:33:32;99550.52;;;36.03;25.42
59588;BME280;45412;54.472;18.464;2023-07-13T09:36:29;99555.75;;;35.25;26.08
59588;BME280;45412;54.472;18.464;2023-07-13T09:39:30;99558.05;;;34.35;27.57
59588;BME280;45412;54.472;18.464;2023-07-13T09:42:23;99559.75;;;32.96;28.86
59588;BME280;45412;54.472;18.464;2023-07-13T09:45:27;99558.92;;;31.68;30.54
59588;BME280;45412;54.472;18.464;2023-07-13T09:48:17;99564.64;;;30.51;32.28
59588;BME280;45412;54.472;18.464;2023-07-13T09:51:15;99566.36;;;29.60;33.96
59588;BME280;45412;54.472;18.464;2023-07-13T09:54:24;99572.58;;;28.76;35.04
59588;BME280;45412;54.472;18.464;2023-07-13T09:57:19;99577.46;;;27.93;36.78
59588;BME280;45412;54.472;18.464;2023-07-13T10:00:37;99593.66;;;26.73;40.72
59588;BME280;45412;54.472;18.464;2023-07-13T10:03:31;99591.46;;;25.68;44.11
59588;BME280;45412;54.472;18.464;2023-07-13T10:06:26;99594.23;;;24.95;47.36
59588;BME280;45412;54.472;18.464;2023-07-13T10:09:17;99599.36;;;24.48;50.45
59588;BME280;45412;54.472;18.464;2023-07-13T10:12:15;99596.86;;;24.13;53.00
59588;BME280;45412;54.472;18.464;2023-07-13T10:15:22;99591.27;;;23.81;54.27
59588;BME280;45412;54.472;18.464;2023-07-13T10:18:16;99586.89;;;23.53;55.47
59588;BME280;45412;54.472;18.464;2023-07-13T10:21:17;99592.00;;;23.42;56.07
59588;BME280;45412;54.472;18.464;2023-07-13T10:24:27;99592.30;;;23.27;57.26
59588;BME280;45412;54.472;18.464;2023-07-13T10:27:30;99601.73;;;23.08;58.38
59588;BME280;45412;54.472;18.464;2023-07-13T10:30:42;99605.77;;;22.90;58.96
59588;BME280;45412;54.472;18.464;2023-07-13T10:33:48;99604.23;;;22.81;60.40
59588;BME280;45412;54.472;18.464;2023-07-13T10:36:47;99602.15;;;22.83;60.94
59588;BME280;45412;54.472;18.464;2023-07-13T10:39:46;99604.92;;;22.95;61.02
59588;BME280;45412;54.472;18.464;2023-07-13T10:42:44;99598.21;;;23.19;59.02
59588;BME280;45412;54.472;18.464;2023-07-13T10:45:37;99596.09;;;23.53;58.74
59588;BME280;45412;54.472;18.464;2023-07-13T10:49:02;99594.25;;;23.98;56.68
59588;BME280;45412;54.472;18.464;2023-07-13T10:51:53;99593.80;;;24.47;55.82
59588;BME280;45412;54.472;18.464;2023-07-13T10:54:42;99584.38;;;25.73;51.50
59588;BME280;45412;54.472;18.464;2023-07-13T10:57:30;99583.73;;;27.86;46.40
59588;BME280;45412;54.472;18.464;2023-07-13T11:00:31;99577.58;;;29.85;41.37
59588;BME280;45412;54.472;18.464;2023-07-13T11:03:23;99593.60;;;31.00;37.27
59588;BME280;45412;54.472;18.464;2023-07-13T11:09:41;99599.20;;;31.18;36.00
59588;BME280;45412;54.472;18.464;2023-07-13T11:15:47;99598.88;;;31.65;33.71
59588;BME280;45412;54.472;18.464;2023-07-13T11:18:36;99597.86;;;31.50;32.50
59588;BME280;45412;54.472;18.464;2023-07-13T11:21:29;99604.42;;;31.56;31.83
59588;BME280;45412;54.472;18.464;2023-07-13T11:24:28;99614.92;;;31.00;33.06
59588;BME280;45412;54.472;18.464;2023-07-13T11:27:44;99610.74;;;30.31;37.21
59588;BME280;45412;54.472;18.464;2023-07-13T11:36:45;99613.83;;;28.52;42.52
59588;BME280;45412;54.472;18.464;2023-07-13T11:39:55;99611.34;;;28.06;43.47
59588;BME280;45412;54.472;18.464;2023-07-13T11:43:06;99606.02;;;27.74;44.84
59588;BME280;45412;54.472;18.464;2023-07-13T11:46:27;99612.89;;;27.54;45.00
59588;BME280;45412;54.472;18.464;2023-07-13T11:49:25;99607.52;;;27.48;45.55
59588;BME280;45412;54.472;18.464;2023-07-13T11:52:22;99601.23;;;27.23;45.70
59588;BME280;45412;54.472;18.464;2023-07-13T11:55:25;99608.55;;;26.76;46.54
59588;BME280;45412;54.472;18.464;2023-07-13T11:58:28;99602.86;;;26.27;47.50
59588;BME280;45412;54.472;18.464;2023-07-13T12:01:33;99614.24;;;26.02;48.19
59588;BME280;45412;54.472;18.464;2023-07-13T12:04:32;99618.01;;;25.96;48.75
59588;BME280;45412;54.472;18.464;2023-07-13T12:07:22;99602.60;;;25.82;49.10
59588;BME280;45412;54.472;18.464;2023-07-13T12:10:24;99616.05;;;25.74;49.38
59588;BME280;45412;54.472;18.464;2023-07-13T12:13:12;99622.24;;;25.60;49.55
59588;BME280;45412;54.472;18.464;2023-07-13T12:16:01;99624.36;;;25.26;50.41
59588;BME280;45412;54.472;18.464;2023-07-13T12:18:53;99630.56;;;24.96;51.15
59588;BME280;45412;54.472;18.464;2023-07-13T12:21:52;99635.20;;;24.79;51.75
59588;BME280;45412;54.472;18.464;2023-07-13T12:24:47;99638.56;;;24.68;51.95
59588;BME280;45412;54.472;18.464;2023-07-13T12:27:37;99648.57;;;24.63;52.57
59588;BME280;45412;54.472;18.464;2023-07-13T12:30:30;99642.92;;;24.51;53.40
59588;BME280;45412;54.472;18.464;2023-07-13T12:33:19;99646.90;;;24.58;52.91
59588;BME280;45412;54.472;18.464;2023-07-13T12:36:12;99639.82;;;24.61;52.14
59588;BME280;45412;54.472;18.464;2023-07-13T12:39:44;99634.00;;;24.68;51.13
59588;BME280;45412;54.472;18.464;2023-07-13T12:42:38;99631.36;;;24.69;51.22
59588;BME280;45412;54.472;18.464;2023-07-13T12:45:29;99628.27;;;24.56;50.67
59588;BME280;45412;54.472;18.464;2023-07-13T12:48:20;99622.45;;;24.42;51.39
59588;BME280;45412;54.472;18.464;2023-07-13T12:51:36;99621.62;;;24.37;50.75
59588;BME280;45412;54.472;18.464;2023-07-13T12:54:30;99618.48;;;24.43;50.81
59588;BME280;45412;54.472;18.464;2023-07-13T12:57:22;99623.03;;;24.67;50.21
59588;BME280;45412;54.472;18.464;2023-07-13T13:00:35;99617.70;;;24.83;49.43
59588;BME280;45412;54.472;18.464;2023-07-13T13:03:44;99612.81;;;24.88;48.96
59588;BME280;45412;54.472;18.464;2023-07-13T13:06:34;99612.52;;;24.91;49.67
59588;BME280;45412;54.472;18.464;2023-07-13T13:09:27;99612.94;;;24.87;49.41
59588;BME280;45412;54.472;18.464;2023-07-13T13:12:20;99615.32;;;24.52;49.74
59588;BME280;45412;54.472;18.464;2023-07-13T13:15:15;99606.85;;;24.32;50.54
59588;BME280;45412;54.472;18.464;2023-07-13T13:18:29;99603.32;;;24.11;51.39
59588;BME280;45412;54.472;18.464;2023-07-13T13:21:18;99598.82;;;23.88;52.37
59588;BME280;45412;54.472;18.464;2023-07-13T13:24:21;99600.23;;;23.89;52.92
59588;BME280;45412;54.472;18.464;2023-07-13T13:27:19;99595.52;;;23.94;52.93
59588;BME280;45412;54.472;18.464;2023-07-13T13:30:17;99598.00;;;23.91;52.89
59588;BME280;45412;54.472;18.464;2023-07-13T13:33:21;99603.91;;;23.76;53.11
59588;BME280;45412;54.472;18.464;2023-07-13T13:36:22;99607.45;;;23.52;53.51
59588;BME280;45412;54.472;18.464;2023-07-13T13:39:35;99602.48;;;23.31;53.69
59588;BME280;45412;54.472;18.464;2023-07-13T13:42:25;99604.45;;;23.15;54.44
59588;BME280;45412;54.472;18.464;2023-07-13T13:45:16;99606.48;;;23.17;54.38
59588;BME280;45412;54.472;18.464;2023-07-13T13:48:29;99613.04;;;23.22;53.90
59588;BME280;45412;54.472;18.464;2023-07-13T13:51:22;99613.29;;;23.54;53.31
59588;BME280;45412;54.472;18.464;2023-07-13T13:54:15;99616.95;;;23.76;52.24
59588;BME280;45412;54.472;18.464;2023-07-13T13:57:05;99619.75;;;23.88;51.97
59588;BME280;45412;54.472;18.464;2023-07-13T13:59:57;99618.19;;;23.90;52.09
59588;BME280;45412;54.472;18.464;2023-07-13T14:02:48;99619.07;;;23.79;51.59
59588;BME280;45412;54.472;18.464;2023-07-13T14:05:42;99617.54;;;23.58;51.83
59588;BME280;45412;54.472;18.464;2023-07-13T14:08:34;99618.30;;;23.34;52.56
59588;BME280;45412;54.472;18.464;2023-07-13T14:11:23;99619.44;;;23.17;53.23
59588;BME280;45412;54.472;18.464;2023-07-13T14:14:18;99626.12;;;23.12;54.05
59588;BME280;45412;54.472;18.464;2023-07-13T14:17:25;99629.73;;;23.14;54.13
59588;BME280;45412;54.472;18.464;2023-07-13T14:20:20;99634.33;;;23.16;54.20
59588;BME280;45412;54.472;18.464;2023-07-13T14:23:16;99635.89;;;23.01;54.55
59588;BME280;45412;54.472;18.464;2023-07-13T14:26:17;99632.64;;;22.92;54.65
59588;BME280;45412;54.472;18.464;2023-07-13T14:29:16;99634.23;;;22.75;54.81
59588;BME280;45412;54.472;18.464;2023-07-13T14:32:12;99634.54;;;22.56;55.66
59588;BME280;45412;54.472;18.464;2023-07-13T14:35:02;99632.77;;;22.38;56.11
59588;BME280;45412;54.472;18.464;2023-07-13T14:37:52;99638.10;;;22.26;56.58
59588;BME280;45412;54.472;18.464;2023-07-13T14:40:43;99634.46;;;22.36;56.97
59588;BME280;45412;54.472;18.464;2023-07-13T14:43:32;99633.03;;;22.45;56.76
59588;BME280;45412;54.472;18.464;2023-07-13T14:46:34;99632.65;;;22.40;56.65
59588;BME280;45412;54.472;18.464;2023-07-13T14:49:35;99630.44;;;22.20;57.57
59588;BME280;45412;54.472;18.464;2023-07-13T14:52:24;99630.67;;;22.16;57.89
59588;BME280;45412;54.472;18.464;2023-07-13T14:55:19;99628.82;;;22.29;57.83
59588;BME280;45412;54.472;18.464;2023-07-13T14:58:16;99631.04;;;22.29;58.04
59588;BME280;45412;54.472;18.464;2023-07-13T15:01:12;99625.84;;;22.33;57.86
59588;BME280;45412;54.472;18.464;2023-07-13T15:04:03;99622.77;;;22.60;57.11
59588;BME280;45412;54.472;18.464;2023-07-13T15:06:59;99624.82;;;22.66;56.08
59588;BME280;45412;54.472;18.464;2023-07-13T15:09:49;99627.29;;;22.61;55.85
59588;BME280;45412;54.472;18.464;2023-07-13T15:12:41;99628.20;;;22.59;54.94
59588;BME280;45412;54.472;18.464;2023-07-13T15:15:37;99624.56;;;22.68;55.36
59588;BME280;45412;54.472;18.464;2023-07-13T15:18:27;99618.85;;;22.75;54.78
59588;BME280;45412;54.472;18.464;2023-07-13T15:21:23;99612.21;;;22.79;54.36
59588;BME280;45412;54.472;18.464;2023-07-13T15:24:12;99620.56;;;22.82;53.89